Sainte-Foy, Canada
Current Conditions -  °F | °C
As of 4:00 AM on Sunday 23 Nov 2014 (Local Time) from CYQB Reporting Station
Snow Showers Snow Showers  
Wind Chill: 26°   Ceiling: 500
Heat Index: 34°   Visibility: 2.5mi
Dew Point: 32°   Wind: 10mph
Humidity: 93%   Direction: 240°WSW
Pressure: 29.9"   Gusts: NA
Location:  46.78°N, 71.3°W
Report Text: CYQB 230900Z 24009KT 2 1/2SM -SHRASN OVC005 01/M00 A2990 RMK SN1ST7 SLP127
Loading
Personal Weather Stations






























Interactive Weather Map New forecast layout! Learn more

10-Day Weather Forecast

Advertisements
Track Severe Weather on mobile